Time;durP1;ratioP1;P1;durP2;ratioP2;P2;SDS_P1;SDS_P2;PMS_P1;PMS_P2;Temp;Humidity;BMP_temperature;BMP_pressure;BME280_temperature;BME280_humidity;BME280_pressure;Samples;Min_cycle;Max_cycle;Signal;HPM_P1;HPM_P2
2023/09/28 00:01:17;;;;;;;4.78;1.08;;;14.60;99.90;;;;;;5132894;27;20061;-79
2023/09/28 00:03:43;;;;;;;7.47;1.50;;;14.50;99.90;;;;;;5132199;27;20035;-79
2023/09/28 00:06:09;;;;;;;7.20;1.10;;;14.50;99.90;;;;;;5131669;27;20023;-79
2023/09/28 00:08:35;;;;;;;7.20;1.75;;;14.50;99.90;;;;;;5132584;27;20138;-79
2023/09/28 00:11:00;;;;;;;8.50;1.58;;;14.50;99.90;;;;;;5131825;27;20023;-79
2023/09/28 00:13:26;;;;;;;10.27;1.15;;;14.50;99.90;;;;;;5132147;27;20110;-79
2023/09/28 00:15:52;;;;;;;8.23;1.58;;;14.50;99.90;;;;;;5113025;27;20451;-79
2023/09/28 00:18:18;;;;;;;8.55;1.77;;;14.50;99.90;;;;;;5132603;27;20027;-79
2023/09/28 00:20:44;;;;;;;11.57;1.63;;;14.50;99.90;;;;;;5132105;27;20395;-78
2023/09/28 00:23:10;;;;;;;10.07;1.35;;;14.50;99.90;;;;;;5131512;27;20034;-80
2023/09/28 00:25:36;;;;;;;6.88;1.20;;;14.50;99.90;;;;;;5113538;27;20034;-78
2023/09/28 00:28:02;;;;;;;6.25;1.00;;;14.40;99.90;;;;;;5131508;27;20020;-79
2023/09/28 00:30:27;;;;;;;9.23;1.55;;;14.30;99.90;;;;;;5132433;27;20053;-80
2023/09/28 00:32:55;;;;;;;5.55;1.33;;;14.30;99.90;;;;;;5131980;27;20083;-80
2023/09/28 00:35:22;;;;;;;6.50;1.50;;;14.20;99.90;;;;;;5113733;27;20440;-79
2023/09/28 00:37:49;;;;;;;8.63;1.58;;;14.20;99.90;;;;;;5132296;27;20031;-78
2023/09/28 00:40:18;;;;;;;7.47;1.60;;;14.10;99.90;;;;;;5131646;27;20034;-79
2023/09/28 00:42:51;;;;;;;10.73;2.08;;;14.10;99.90;;;;;;5132139;27;20031;-79
2023/09/28 00:45:21;;;;;;;9.68;1.58;;;14.10;99.90;;;;;;5131267;27;20504;-79
2023/09/28 00:47:50;;;;;;;8.32;1.70;;;14.00;99.90;;;;;;5131468;27;20080;-80
2023/09/28 00:50:17;;;;;;;9.05;1.42;;;14.00;99.90;;;;;;5131226;27;20027;-79
2023/09/28 00:52:43;;;;;;;6.93;1.40;;;14.10;99.90;;;;;;5131699;27;20078;-80
2023/09/28 00:55:11;;;;;;;9.07;1.55;;;14.00;99.90;;;;;;5131116;27;20464;-79
2023/09/28 00:57:39;;;;;;;13.82;2.03;;;14.10;99.90;;;;;;5113375;28;20035;-79
2023/09/28 01:00:08;;;;;;;8.82;1.38;;;14.10;99.90;;;;;;5131178;28;20111;-79
2023/09/28 01:02:34;;;;;;;7.45;1.33;;;14.10;99.90;;;;;;5113769;28;20432;-78
2023/09/28 01:05:04;;;;;;;6.40;1.83;;;14.00;99.90;;;;;;5112607;28;20027;-78
2023/09/28 01:07:30;;;;;;;4.57;1.25;;;14.10;99.90;;;;;;5131420;28;20035;-79
2023/09/28 01:09:57;;;;;;;11.60;1.50;;;14.00;99.90;;;;;;5131029;28;20031;-79
2023/09/28 01:12:22;;;;;;;8.40;1.90;;;14.10;99.90;;;;;;5131710;28;20050;-78
2023/09/28 01:14:52;;;;;;;7.95;1.90;;;14.00;99.90;;;;;;5131742;28;20027;-78
2023/09/28 01:17:18;;;;;;;7.85;1.75;;;13.90;99.90;;;;;;5095985;28;20032;-79
2023/09/28 01:19:44;;;;;;;10.95;1.77;;;14.00;99.90;;;;;;5131576;28;20026;-79
2023/09/28 01:22:16;;;;;;;14.52;2.63;;;14.00;99.90;;;;;;5130755;28;20024;-79
2023/09/28 01:24:41;;;;;;;11.65;1.83;;;14.00;99.90;;;;;;5113210;28;20573;-80
2023/09/28 01:27:07;;;;;;;5.38;1.70;;;14.10;99.90;;;;;;5131404;28;20061;-79
2023/09/28 01:29:33;;;;;;;7.85;1.52;;;14.10;99.90;;;;;;5131879;28;20110;-78
2023/09/28 01:31:58;;;;;;;8.00;1.55;;;14.20;99.90;;;;;;5130788;28;20023;-78
2023/09/28 01:34:24;;;;;;;5.93;1.27;;;14.20;99.90;;;;;;5131568;28;20019;-78
2023/09/28 01:36:50;;;;;;;5.72;1.00;;;14.10;99.90;;;;;;5112806;28;20031;-80
2023/09/28 01:39:15;;;;;;;8.93;1.40;;;14.10;99.90;;;;;;5130914;28;20573;-80
2023/09/28 01:41:42;;;;;;;4.50;1.23;;;14.10;99.90;;;;;;5131229;28;20053;-78
2023/09/28 01:44:08;;;;;;;5.63;1.17;;;14.10;99.90;;;;;;5131159;28;20455;-80
2023/09/28 01:46:34;;;;;;;4.75;1.08;;;14.10;99.90;;;;;;5131212;28;20051;-79
2023/09/28 01:48:59;;;;;;;7.60;1.40;;;14.00;99.90;;;;;;5130748;28;20070;-80
2023/09/28 01:51:25;;;;;;;7.70;1.30;;;14.00;99.90;;;;;;5131343;28;20027;-80
2023/09/28 01:53:51;;;;;;;6.78;1.33;;;14.00;99.90;;;;;;5131206;28;20035;-79
2023/09/28 01:56:18;;;;;;;8.40;1.80;;;14.00;99.90;;;;;;5130957;27;20323;-80
2023/09/28 01:58:44;;;;;;;10.95;1.83;;;13.90;99.90;;;;;;5134026;27;20027;-79
2023/09/28 02:01:21;;;;;;;7.85;1.80;;;13.90;99.90;;;;;;5134995;27;20027;-79
2023/09/28 02:03:47;;;;;;;10.43;1.55;;;13.90;99.90;;;;;;5135404;27;20031;-79
2023/09/28 02:06:14;;;;;;;11.13;1.80;;;13.90;99.90;;;;;;5134558;27;20423;-79
2023/09/28 02:08:40;;;;;;;11.68;2.72;;;13.90;99.90;;;;;;5135010;27;20110;-80
2023/09/28 02:11:06;;;;;;;6.07;1.52;;;13.90;99.90;;;;;;5134102;27;20106;-80
2023/09/28 02:13:32;;;;;;;11.52;1.83;;;13.80;99.90;;;;;;5134605;27;20499;-79
2023/09/28 02:15:57;;;;;;;8.38;1.85;;;13.80;99.90;;;;;;5134847;27;20459;-80
2023/09/28 02:18:23;;;;;;;9.68;2.08;;;13.80;99.90;;;;;;5134481;27;20019;-79
2023/09/28 02:20:49;;;;;;;9.85;2.03;;;13.80;99.90;;;;;;5134531;27;20392;-79
2023/09/28 02:23:15;;;;;;;8.80;1.63;;;13.80;99.90;;;;;;5115570;27;20023;-79
2023/09/28 02:25:40;;;;;;;5.88;1.90;;;13.80;99.90;;;;;;5115760;27;20573;-80
2023/09/28 02:28:06;;;;;;;9.40;2.55;;;13.80;99.90;;;;;;5134073;27;20027;-80
2023/09/28 02:30:32;;;;;;;9.82;1.80;;;13.80;99.90;;;;;;5134564;27;20392;-79
2023/09/28 02:32:57;;;;;;;9.20;1.88;;;13.80;99.90;;;;;;5115742;27;20062;-80
2023/09/28 02:35:24;;;;;;;8.27;1.90;;;13.70;99.90;;;;;;5115710;27;20101;-79
2023/09/28 02:37:51;;;;;;;10.27;2.15;;;13.80;99.90;;;;;;5134152;27;20103;-79
2023/09/28 02:40:18;;;;;;;12.85;2.03;;;13.70;99.90;;;;;;5133533;27;20058;-78
2023/09/28 02:42:46;;;;;;;10.40;2.25;;;13.70;99.90;;;;;;5134273;27;20460;-79
2023/09/28 02:45:11;;;;;;;9.00;1.80;;;13.70;99.90;;;;;;5115331;27;20023;-79
2023/09/28 02:47:41;;;;;;;7.30;1.73;;;13.70;99.90;;;;;;5133859;27;20057;-79
2023/09/28 02:50:11;;;;;;;10.15;1.70;;;13.70;99.90;;;;;;5134260;27;20031;-79
2023/09/28 02:52:38;;;;;;;10.68;2.25;;;13.80;99.90;;;;;;5115832;27;20450;-79
2023/09/28 02:55:07;;;;;;;8.80;1.77;;;13.80;99.90;;;;;;5133765;27;20033;-78
2023/09/28 02:57:33;;;;;;;9.35;2.22;;;13.80;99.90;;;;;;5134250;27;20026;-79
2023/09/28 02:59:59;;;;;;;6.82;1.75;;;13.80;99.90;;;;;;5134405;27;20364;-80
2023/09/28 03:02:25;;;;;;;12.13;2.30;;;13.80;99.90;;;;;;5133969;27;20087;-78
2023/09/28 03:04:51;;;;;;;9.70;1.70;;;13.80;99.90;;;;;;5134526;27;20448;-78
2023/09/28 03:07:17;;;;;;;8.00;1.65;;;13.80;99.90;;;;;;5133333;27;20027;-79
2023/09/28 03:09:42;;;;;;;5.97;1.10;;;13.80;99.90;;;;;;5115462;27;20031;-79
2023/09/28 03:12:08;;;;;;;3.17;0.95;;;13.80;99.90;;;;;;5133151;27;20464;-79
2023/09/28 03:14:34;;;;;;;3.92;0.80;;;13.70;99.90;;;;;;5115169;27;20068;-79
2023/09/28 03:17:00;;;;;;;3.97;1.00;;;13.70;99.90;;;;;;5133611;27;20023;-78
2023/09/28 03:19:25;;;;;;;3.20;0.88;;;13.70;99.90;;;;;;5133129;27;20023;-79
2023/09/28 03:21:51;;;;;;;4.60;0.80;;;13.70;99.90;;;;;;5114948;27;20046;-80
2023/09/28 03:24:17;;;;;;;3.30;0.85;;;13.70;99.90;;;;;;5132935;27;20023;-80
2023/09/28 03:26:42;;;;;;;4.25;0.70;;;13.70;99.90;;;;;;5133167;27;20098;-79
2023/09/28 03:29:08;;;;;;;4.32;0.60;;;13.70;99.90;;;;;;5133057;27;20092;-80
2023/09/28 03:31:34;;;;;;;3.20;0.80;;;13.70;99.90;;;;;;5133963;27;20019;-80
2023/09/28 03:33:59;;;;;;;2.72;0.70;;;13.70;99.90;;;;;;5133383;27;20402;-79
2023/09/28 03:36:30;;;;;;;4.80;0.93;;;13.60;99.90;;;;;;5133131;27;20027;-78
2023/09/28 03:38:57;;;;;;;4.82;0.98;;;13.60;99.90;;;;;;5133163;27;20038;-79
2023/09/28 03:41:23;;;;;;;7.93;2.00;;;13.60;99.90;;;;;;5132743;27;20062;-78
2023/09/28 03:43:48;;;;;;;8.23;1.35;;;13.60;99.90;;;;;;5132781;27;20113;-78
2023/09/28 03:46:19;;;;;;;9.27;1.70;;;13.60;99.90;;;;;;5132717;27;20057;-79
2023/09/28 03:48:45;;;;;;;7.85;1.50;;;13.50;99.90;;;;;;5133316;27;20055;-80
2023/09/28 03:51:11;;;;;;;10.27;1.67;;;13.60;99.90;;;;;;5132616;27;20080;-80
2023/09/28 03:53:40;;;;;;;11.70;1.92;;;13.60;99.90;;;;;;5114315;27;20054;-79
2023/09/28 03:56:06;;;;;;;11.07;2.17;;;13.60;99.90;;;;;;5132623;27;20027;-80
2023/09/28 03:58:32;;;;;;;10.85;2.28;;;13.70;99.90;;;;;;5114225;27;20460;-80
2023/09/28 04:00:58;;;;;;;12.30;2.22;;;13.70;99.90;;;;;;5132774;27;20035;-79
2023/09/28 04:03:24;;;;;;;9.13;2.45;;;13.60;99.90;;;;;;5131869;27;20094;-79
2023/09/28 04:05:50;;;;;;;7.20;1.83;;;13.60;99.90;;;;;;5132747;27;20022;-79
2023/09/28 04:08:15;;;;;;;7.45;1.95;;;13.70;99.90;;;;;;5132247;27;20053;-79
2023/09/28 04:10:41;;;;;;;8.38;1.80;;;13.70;99.90;;;;;;5132460;27;20027;-79
2023/09/28 04:13:07;;;;;;;12.55;2.38;;;13.70;99.90;;;;;;5113081;27;20506;-78
2023/09/28 04:15:33;;;;;;;8.68;1.70;;;13.70;99.90;;;;;;5132687;27;20084;-79
2023/09/28 04:18:00;;;;;;;6.05;1.45;;;13.70;99.90;;;;;;5132873;27;20019;-78
2023/09/28 04:20:26;;;;;;;10.95;2.10;;;13.70;99.90;;;;;;5131179;27;20015;-78
2023/09/28 04:22:52;;;;;;;9.18;2.03;;;13.70;99.90;;;;;;5132322;27;20058;-79
2023/09/28 04:25:20;;;;;;;8.25;1.73;;;13.60;99.90;;;;;;5131901;27;20429;-79
2023/09/28 04:27:46;;;;;;;9.07;1.80;;;13.60;99.90;;;;;;5132069;27;20027;-79
2023/09/28 04:30:12;;;;;;;14.65;2.22;;;13.60;99.90;;;;;;5131697;27;20024;-79
2023/09/28 04:32:38;;;;;;;10.07;2.13;;;13.60;99.90;;;;;;5132188;27;20042;-80
2023/09/28 04:35:06;;;;;;;11.23;2.05;;;13.60;99.90;;;;;;5113622;27;20023;-79
2023/09/28 04:37:32;;;;;;;7.45;1.88;;;13.60;99.90;;;;;;5132026;27;20024;-79
2023/09/28 04:39:57;;;;;;;8.77;1.85;;;13.60;99.90;;;;;;5131932;27;20031;-79
2023/09/28 04:42:23;;;;;;;12.57;2.38;;;13.60;99.90;;;;;;5131313;27;20031;-79
2023/09/28 04:44:49;;;;;;;14.23;2.88;;;13.60;99.90;;;;;;5131780;27;20472;-79
2023/09/28 04:47:15;;;;;;;15.27;2.78;;;13.50;99.90;;;;;;5131351;27;20376;-80
2023/09/28 04:49:41;;;;;;;9.45;2.28;;;13.50;99.90;;;;;;5131813;27;20076;-81
2023/09/28 04:52:10;;;;;;;10.38;2.35;;;13.50;99.90;;;;;;5131679;27;20034;-81
2023/09/28 04:54:36;;;;;;;13.93;2.47;;;13.50;99.90;;;;;;5131747;27;20062;-80
2023/09/28 04:57:02;;;;;;;13.40;2.50;;;13.50;99.90;;;;;;5131726;27;20543;-79
2023/09/28 04:59:27;;;;;;;10.35;2.38;;;13.50;99.90;;;;;;5131044;27;20019;-79
2023/09/28 05:01:53;;;;;;;7.93;2.65;;;13.50;99.90;;;;;;5132363;28;20027;-79
2023/09/28 05:04:19;;;;;;;12.85;2.53;;;13.40;99.90;;;;;;5131273;28;20039;-79
2023/09/28 05:06:46;;;;;;;10.27;2.33;;;13.30;99.90;;;;;;5112935;28;20023;-78
2023/09/28 05:09:13;;;;;;;13.60;2.17;;;13.30;99.90;;;;;;5131494;28;20026;-79
2023/09/28 05:11:39;;;;;;;9.00;2.05;;;13.20;99.90;;;;;;5112839;28;20052;-79
2023/09/28 05:14:05;;;;;;;11.82;2.70;;;13.20;99.90;;;;;;5131170;28;20115;-79
2023/09/28 05:16:31;;;;;;;9.18;2.35;;;13.20;99.90;;;;;;5130780;28;20043;-79
2023/09/28 05:18:57;;;;;;;11.38;2.00;;;13.20;99.90;;;;;;5131819;28;20070;-79
2023/09/28 05:21:23;;;;;;;10.10;2.30;;;13.10;99.90;;;;;;5112544;28;20559;-80
2023/09/28 05:23:50;;;;;;;16.35;2.30;;;13.10;99.90;;;;;;5131502;28;20098;-80
2023/09/28 05:26:16;;;;;;;8.80;2.55;;;13.10;99.90;;;;;;5131016;28;20045;-80
2023/09/28 05:28:42;;;;;;;10.15;2.40;;;13.10;99.90;;;;;;5131460;28;20106;-80
2023/09/28 05:31:08;;;;;;;9.07;2.40;;;13.10;99.90;;;;;;5113074;27;20126;-80
2023/09/28 05:33:34;;;;;;;11.63;2.65;;;13.00;99.90;;;;;;5135026;27;20035;-80
2023/09/28 05:36:00;;;;;;;9.27;2.10;;;13.10;99.90;;;;;;5117088;27;20045;-80
2023/09/28 05:38:25;;;;;;;7.25;2.33;;;13.10;99.90;;;;;;5116446;27;20019;-81
2023/09/28 05:40:51;;;;;;;9.48;2.10;;;13.00;99.90;;;;;;5116912;27;20054;-79
2023/09/28 05:43:17;;;;;;;11.25;2.42;;;13.00;99.90;;;;;;5116245;27;20160;-81
2023/09/28 05:45:42;;;;;;;10.90;2.45;;;13.00;99.90;;;;;;5134983;27;20456;-81
2023/09/28 05:48:08;;;;;;;10.18;2.25;;;13.00;99.90;;;;;;5135405;27;20116;-80
2023/09/28 05:50:34;;;;;;;10.73;2.83;;;13.00;99.90;;;;;;5116143;27;20031;-80
2023/09/28 05:53:00;;;;;;;12.60;2.70;;;13.00;99.90;;;;;;5116864;27;20130;-80
2023/09/28 05:55:26;;;;;;;11.48;2.63;;;12.90;99.90;;;;;;5137129;27;20046;-80
2023/09/28 05:57:53;;;;;;;14.13;2.95;;;12.90;99.90;;;;;;5135203;27;20152;-80
2023/09/28 06:00:19;;;;;;;7.05;2.53;;;12.90;99.90;;;;;;5134639;27;20027;-81
2023/09/28 06:02:44;;;;;;;8.38;2.00;;;12.90;99.90;;;;;;5116539;27;20053;-81
2023/09/28 06:05:11;;;;;;;11.50;2.58;;;12.90;99.90;;;;;;5134702;27;20023;-81
2023/09/28 06:07:37;;;;;;;8.93;2.53;;;12.90;99.90;;;;;;5134670;27;20109;-80
2023/09/28 06:10:03;;;;;;;8.93;2.63;;;13.00;99.90;;;;;;5135246;27;20015;-80
2023/09/28 06:12:29;;;;;;;15.77;2.55;;;12.90;99.90;;;;;;5116058;27;20443;-80
2023/09/28 06:14:55;;;;;;;14.77;2.88;;;12.90;99.90;;;;;;5135152;27;20023;-80
2023/09/28 06:17:21;;;;;;;11.65;2.70;;;12.90;99.90;;;;;;5134536;27;20092;-80
2023/09/28 06:19:47;;;;;;;14.85;2.70;;;12.90;99.90;;;;;;5134755;27;20433;-80
2023/09/28 06:22:13;;;;;;;10.65;2.55;;;12.90;99.90;;;;;;5134826;27;20059;-80
2023/09/28 06:24:39;;;;;;;20.38;3.63;;;12.90;99.90;;;;;;5134528;27;20082;-79
2023/09/28 06:27:05;;;;;;;12.88;2.90;;;12.90;99.90;;;;;;5134808;27;20523;-79
2023/09/28 06:29:32;;;;;;;16.25;2.80;;;12.90;99.90;;;;;;5133671;27;20106;-80
2023/09/28 06:31:58;;;;;;;18.90;2.90;;;12.90;99.90;;;;;;5134410;27;20054;-80
2023/09/28 06:34:24;;;;;;;12.52;2.97;;;12.80;99.90;;;;;;5133587;27;20031;-81
2023/09/28 06:36:50;;;;;;;17.42;3.45;;;12.90;99.90;;;;;;5115938;27;20087;-80
2023/09/28 06:39:16;;;;;;;16.77;3.38;;;12.90;99.90;;;;;;5134014;27;20030;-80
2023/09/28 06:41:42;;;;;;;17.67;3.35;;;12.90;99.90;;;;;;5115722;27;20397;-79
2023/09/28 06:44:10;;;;;;;17.25;3.20;;;12.90;99.90;;;;;;5114524;27;20479;-80
2023/09/28 06:46:36;;;;;;;14.00;2.97;;;12.90;99.90;;;;;;5133629;27;20076;-79
2023/09/28 06:49:05;;;;;;;16.35;3.70;;;12.90;99.90;;;;;;5115369;27;20066;-80
2023/09/28 06:51:31;;;;;;;12.75;2.70;;;13.00;99.90;;;;;;5133778;27;20023;-80
2023/09/28 06:53:57;;;;;;;12.50;2.90;;;13.00;99.90;;;;;;5114767;27;20265;-80
2023/09/28 06:56:23;;;;;;;12.30;2.90;;;13.00;99.90;;;;;;5133265;27;20027;-78
2023/09/28 06:58:50;;;;;;;18.10;3.40;;;13.00;99.90;;;;;;5115081;27;20039;-78
2023/09/28 07:01:16;;;;;;;12.73;3.42;;;13.00;99.90;;;;;;5114819;27;20076;-81
2023/09/28 07:03:42;;;;;;;13.38;3.38;;;13.00;99.90;;;;;;5114939;27;20027;-79
2023/09/28 07:06:08;;;;;;;11.88;3.08;;;13.10;99.90;;;;;;5114805;27;20393;-79
2023/09/28 07:08:34;;;;;;;10.43;3.33;;;13.00;99.90;;;;;;5133318;27;20053;-79
2023/09/28 07:11:01;;;;;;;15.70;3.90;;;13.10;99.90;;;;;;5114735;27;20019;-80
2023/09/28 07:13:27;;;;;;;19.35;4.15;;;13.10;99.90;;;;;;5113919;27;20333;-79
2023/09/28 07:15:52;;;;;;;14.38;3.92;;;13.10;99.90;;;;;;5132852;27;20031;-81
2023/09/28 07:18:18;;;;;;;14.38;3.70;;;13.10;99.90;;;;;;5114243;27;20019;-81
2023/09/28 07:20:44;;;;;;;20.73;4.82;;;13.10;99.90;;;;;;5133008;27;20380;-80
2023/09/28 07:23:10;;;;;;;15.95;3.63;;;13.10;99.90;;;;;;5132776;27;20058;-80
2023/09/28 07:25:35;;;;;;;17.08;3.10;;;13.20;99.90;;;;;;5132265;27;20034;-81
2023/09/28 07:28:01;;;;;;;21.33;3.90;;;13.10;99.90;;;;;;5133245;27;20119;-80
2023/09/28 07:30:27;;;;;;;18.98;3.85;;;13.20;99.90;;;;;;5132149;27;20034;-81
2023/09/28 07:32:53;;;;;;;19.92;3.70;;;13.20;99.90;;;;;;5114323;27;20168;-80
2023/09/28 07:35:19;;;;;;;15.65;3.22;;;13.20;99.90;;;;;;5132190;27;20318;-81
2023/09/28 07:37:45;;;;;;;13.20;3.40;;;13.30;99.90;;;;;;5132678;27;20031;-79
2023/09/28 07:40:13;;;;;;;12.68;3.38;;;13.30;99.90;;;;;;5132995;27;20030;-79
2023/09/28 07:42:44;;;;;;;14.55;3.88;;;13.30;99.90;;;;;;5132139;27;20078;-79
2023/09/28 07:45:12;;;;;;;11.20;3.60;;;13.40;99.90;;;;;;5132613;27;20031;-80
2023/09/28 07:47:38;;;;;;;19.70;3.92;;;13.40;99.90;;;;;;5131605;27;20043;-80
2023/09/28 07:50:05;;;;;;;18.17;4.32;;;13.40;99.90;;;;;;5132742;27;20027;-79
2023/09/28 07:52:31;;;;;;;20.15;4.18;;;13.40;99.90;;;;;;5131732;27;20070;-79
2023/09/28 07:54:57;;;;;;;18.58;4.00;;;13.40;99.90;;;;;;5131154;27;20464;-80
2023/09/28 07:57:23;;;;;;;20.20;4.18;;;13.50;99.90;;;;;;5132148;27;20067;-80
2023/09/28 07:59:48;;;;;;;14.50;4.22;;;13.60;99.90;;;;;;5132335;27;20453;-78
2023/09/28 08:02:14;;;;;;;12.52;3.50;;;13.60;99.90;;;;;;5132116;27;20109;-79
2023/09/28 08:04:40;;;;;;;12.90;3.50;;;13.60;99.90;;;;;;5131363;27;20035;-80
2023/09/28 08:07:06;;;;;;;11.57;3.08;;;13.60;99.90;;;;;;5131685;27;20019;-78
2023/09/28 08:09:33;;;;;;;12.60;3.45;;;13.70;99.90;;;;;;5131570;27;20092;-79
2023/09/28 08:11:59;;;;;;;16.73;3.50;;;13.70;99.90;;;;;;5131665;27;20024;-79
2023/09/28 08:14:25;;;;;;;16.35;3.72;;;13.70;99.90;;;;;;5112838;27;20193;-79
2023/09/28 08:16:51;;;;;;;20.98;3.95;;;13.80;99.90;;;;;;5131794;27;20181;-79
2023/09/28 08:19:17;;;;;;;20.83;3.67;;;13.70;99.90;;;;;;5131619;27;20019;-78
2023/09/28 08:21:43;;;;;;;15.05;3.85;;;13.80;99.90;;;;;;5112910;27;20129;-79
2023/09/28 08:24:10;;;;;;;18.55;4.88;;;13.80;99.90;;;;;;5113484;27;20027;-78
2023/09/28 08:26:36;;;;;;;20.25;3.63;;;13.80;99.90;;;;;;5130481;27;20413;-78
2023/09/28 08:29:03;;;;;;;16.30;3.80;;;13.80;99.90;;;;;;5131702;27;20038;-79
2023/09/28 08:31:32;;;;;;;17.33;4.20;;;13.80;99.90;;;;;;5130963;27;20019;-79
2023/09/28 08:33:59;;;;;;;19.83;4.15;;;13.90;99.90;;;;;;5131300;27;20432;-79
2023/09/28 08:36:26;;;;;;;18.73;4.60;;;13.90;99.90;;;;;;5131271;27;20045;-79
2023/09/28 08:38:53;;;;;;;12.63;3.95;;;13.90;99.90;;;;;;5131389;27;20167;-79
2023/09/28 08:41:26;;;;;;;20.00;3.97;;;13.90;99.90;;;;;;5131563;27;20019;-79
2023/09/28 08:43:57;;;;;;;17.80;4.28;;;13.90;99.90;;;;;;5131698;27;20114;-79
2023/09/28 08:46:27;;;;;;;15.32;3.92;;;14.00;99.90;;;;;;5131192;27;20433;-80
2023/09/28 08:48:58;;;;;;;20.17;4.95;;;14.00;99.90;;;;;;5131512;27;20047;-79
2023/09/28 08:51:25;;;;;;;24.83;4.95;;;14.00;99.90;;;;;;5131474;27;20027;-80
2023/09/28 08:53:52;;;;;;;22.33;4.85;;;14.10;99.90;;;;;;5130985;27;20477;-79
2023/09/28 08:56:19;;;;;;;18.98;4.30;;;14.00;99.90;;;;;;5131376;27;20036;-79
2023/09/28 08:58:47;;;;;;;21.63;5.47;;;14.10;99.90;;;;;;5131078;27;20026;-79
2023/09/28 09:01:12;;;;;;;16.33;4.00;;;14.10;99.90;;;;;;5112562;28;20023;-79
2023/09/28 09:03:40;;;;;;;15.85;3.80;;;14.20;99.90;;;;;;5131071;28;20436;-79
2023/09/28 09:06:09;;;;;;;15.35;4.10;;;14.20;99.90;;;;;;5112299;28;20088;-79
2023/09/28 09:08:35;;;;;;;21.55;5.20;;;14.30;99.90;;;;;;5130930;28;20030;-78
2023/09/28 09:11:01;;;;;;;21.00;4.85;;;14.30;99.90;;;;;;5112897;28;20072;-78
2023/09/28 09:13:29;;;;;;;18.70;4.28;;;14.30;99.90;;;;;;5130651;28;20039;-79
2023/09/28 09:15:55;;;;;;;17.52;4.55;;;14.40;99.90;;;;;;5131276;28;20023;-79
2023/09/28 09:18:24;;;;;;;18.05;4.38;;;14.50;99.90;;;;;;5130995;28;20035;-79
2023/09/28 09:20:56;;;;;;;22.38;4.75;;;14.50;99.90;;;;;;5112501;28;20072;-79
2023/09/28 09:23:22;;;;;;;18.23;5.07;;;14.60;99.90;;;;;;5131188;28;20031;-79
2023/09/28 09:25:48;;;;;;;20.38;5.05;;;14.60;99.90;;;;;;5130378;28;20042;-80
2023/09/28 09:28:34;;;;;;;19.48;5.35;;;14.60;99.90;;;;;;5131028;28;20125;-80
2023/09/28 09:31:01;;;;;;;26.98;4.60;;;14.70;99.90;;;;;;5130924;28;20031;-79
2023/09/28 09:33:27;;;;;;;16.15;4.28;;;14.70;99.90;;;;;;5130433;28;20043;-79
2023/09/28 09:35:52;;;;;;;18.73;4.75;;;14.70;99.90;;;;;;5131255;28;20391;-78
2023/09/28 09:38:28;;;;;;;23.80;4.47;;;14.80;99.90;;;;;;5112666;28;20464;-79
2023/09/28 09:41:04;;;;;;;20.70;4.90;;;14.80;99.90;;;;;;5112406;28;20027;-79
2023/09/28 09:43:39;;;;;;;26.38;4.85;;;14.80;99.90;;;;;;5130585;28;20479;-79
2023/09/28 09:46:09;;;;;;;19.83;4.72;;;14.80;99.90;;;;;;5131060;28;20126;-79
2023/09/28 09:48:40;;;;;;;23.20;5.18;;;14.80;99.90;;;;;;5130399;28;20079;-79
2023/09/28 09:51:12;;;;;;;19.77;4.30;;;14.80;99.90;;;;;;5112637;28;20027;-79
2023/09/28 09:53:42;;;;;;;15.60;3.77;;;14.90;99.90;;;;;;5130412;28;20046;-80
2023/09/28 09:56:09;;;;;;;18.42;4.15;;;14.90;99.90;;;;;;5130733;28;20095;-79
2023/09/28 09:58:47;;;;;;;17.20;3.90;;;15.00;99.90;;;;;;5130109;28;20140;-79
2023/09/28 10:01:16;;;;;;;23.52;5.28;;;15.10;99.90;;;;;;5130989;28;20110;-79
2023/09/28 10:03:45;;;;;;;18.58;4.50;;;15.10;99.90;;;;;;5130387;28;20072;-79
2023/09/28 10:06:15;;;;;;;17.15;4.20;;;15.20;99.90;;;;;;5130845;28;20027;-78
2023/09/28 10:08:42;;;;;;;21.40;3.90;;;15.20;99.90;;;;;;5130884;28;20352;-78
2023/09/28 10:11:08;;;;;;;17.08;4.50;;;15.30;99.90;;;;;;5130844;28;20027;-78
2023/09/28 10:13:35;;;;;;;17.80;4.28;;;15.30;99.90;;;;;;5130207;28;20055;-79
2023/09/28 10:16:02;;;;;;;18.58;4.45;;;15.30;99.90;;;;;;5131004;28;20091;-78
2023/09/28 10:18:30;;;;;;;16.98;4.40;;;15.30;99.90;;;;;;5130950;27;20038;-80
2023/09/28 10:21:02;;;;;;;13.98;4.13;;;15.30;99.90;;;;;;5115911;27;20425;-78
2023/09/28 10:23:29;;;;;;;22.25;4.30;;;15.30;99.90;;;;;;5115741;27;20031;-79
2023/09/28 10:26:03;;;;;;;19.45;4.70;;;15.30;99.90;;;;;;5115855;27;20034;-78
2023/09/28 10:28:29;;;;;;;15.35;4.30;;;15.40;99.90;;;;;;5133892;27;20063;-79
2023/09/28 10:31:10;;;;;;;18.00;4.90;;;15.50;99.90;;;;;;5134429;27;20114;-79
2023/09/28 10:33:55;;;;;;;18.63;5.03;;;15.60;99.90;;;;;;5133601;27;20038;-80
2023/09/28 10:36:21;;;;;;;22.60;5.38;;;15.60;99.90;;;;;;5115561;27;20028;-79
2023/09/28 10:38:46;;;;;;;25.67;5.25;;;15.60;99.90;;;;;;5133622;27;20023;-80
2023/09/28 10:41:12;;;;;;;17.35;4.22;;;15.60;99.90;;;;;;5133687;27;20072;-79
2023/09/28 10:43:42;;;;;;;23.02;5.32;;;15.70;99.90;;;;;;5133321;27;20062;-79
2023/09/28 10:46:08;;;;;;;20.65;4.95;;;15.70;99.90;;;;;;5134028;27;20042;-78
2023/09/28 10:48:45;;;;;;;17.35;4.95;;;15.70;99.90;;;;;;5133139;27;20484;-79
2023/09/28 10:51:21;;;;;;;22.42;5.43;;;15.70;99.90;;;;;;5133655;27;20160;-79
2023/09/28 10:53:47;;;;;;;15.90;4.53;;;15.60;99.90;;;;;;5132567;27;20116;-79
2023/09/28 10:56:13;;;;;;;20.98;4.80;;;15.60;99.90;;;;;;5133508;27;20184;-78
2023/09/28 10:58:43;;;;;;;17.50;4.28;;;15.60;99.90;;;;;;5133024;27;20135;-79
2023/09/28 11:01:10;;;;;;;13.85;4.57;;;15.50;99.90;;;;;;5115152;27;20034;-79
2023/09/28 11:03:36;;;;;;;19.35;4.38;;;15.50;99.90;;;;;;5133307;27;20038;-80
2023/09/28 11:06:03;;;;;;;15.88;4.78;;;15.50;99.90;;;;;;5114923;27;20325;-79
2023/09/28 11:08:31;;;;;;;18.80;4.68;;;15.50;99.90;;;;;;5133602;27;20024;-79
2023/09/28 11:10:58;;;;;;;18.85;4.90;;;15.40;99.90;;;;;;5132705;27;20440;-79
2023/09/28 11:13:27;;;;;;;18.70;4.93;;;15.40;99.90;;;;;;5133289;27;20084;-79
2023/09/28 11:15:53;;;;;;;20.00;5.20;;;15.30;99.90;;;;;;5132650;27;20051;-79
2023/09/28 11:18:21;;;;;;;15.88;4.90;;;15.30;99.90;;;;;;5132932;27;20070;-79
2023/09/28 11:20:47;;;;;;;25.70;6.07;;;15.30;99.90;;;;;;5132239;27;20035;-79
2023/09/28 11:23:13;;;;;;;19.92;4.95;;;15.30;99.90;;;;;;5132951;27;20433;-77
2023/09/28 11:25:42;;;;;;;22.13;5.60;;;15.30;99.90;;;;;;5097037;27;20035;-79
2023/09/28 11:28:10;;;;;;;25.38;5.38;;;15.40;99.90;;;;;;5132858;27;20375;-79
2023/09/28 11:48:11;;;;;;;20.50;5.38;;;15.40;99.90;;;;;;5108598;27;20322;-79
2023/09/28 11:50:38;;;;;;;15.68;5.10;;;15.40;99.90;;;;;;5088506;28;20131;-79
2023/09/28 11:53:10;;;;;;;17.88;5.60;;;15.40;99.90;;;;;;5087947;28;20046;-80
2023/09/28 11:55:38;;;;;;;18.48;5.35;;;15.40;99.90;;;;;;5088518;28;20047;-79
2023/09/28 11:58:11;;;;;;;25.65;5.82;;;15.40;99.90;;;;;;5087664;28;20033;-79
2023/09/28 12:00:37;;;;;;;21.67;5.07;;;15.40;99.90;;;;;;5088217;28;20122;-79
2023/09/28 12:03:04;;;;;;;16.95;5.32;;;15.40;99.90;;;;;;5087750;28;20047;-79
2023/09/28 12:05:31;;;;;;;17.70;5.28;;;15.40;99.90;;;;;;5088289;28;20057;-79
2023/09/28 12:07:58;;;;;;;21.52;5.97;;;15.50;99.90;;;;;;5088048;28;20036;-78
2023/09/28 12:10:23;;;;;;;21.60;6.13;;;15.50;99.90;;;;;;5087202;28;20035;-79
2023/09/28 12:12:49;;;;;;;16.10;5.10;;;15.40;99.90;;;;;;5088051;28;20025;-79
2023/09/28 12:15:16;;;;;;;26.95;6.32;;;15.50;99.90;;;;;;5087792;28;20021;-79
2023/09/28 12:17:43;;;;;;;16.52;5.45;;;15.40;99.90;;;;;;5088167;28;20032;-79
2023/09/28 12:20:14;;;;;;;22.92;5.70;;;15.40;99.90;;;;;;5087925;28;20462;-80
2023/09/28 12:22:43;;;;;;;16.52;5.22;;;15.40;99.90;;;;;;5087985;28;20024;-79
2023/09/28 12:25:09;;;;;;;19.23;6.13;;;15.40;99.90;;;;;;5087733;28;20480;-79
2023/09/28 12:27:36;;;;;;;26.30;6.00;;;15.40;99.90;;;;;;5069564;28;20159;-79
2023/09/28 12:30:02;;;;;;;18.10;5.47;;;15.40;99.90;;;;;;5087242;28;20024;-80
2023/09/28 12:32:29;;;;;;;15.85;5.68;;;15.40;99.90;;;;;;5087357;28;20024;-79
2023/09/28 12:34:56;;;;;;;15.05;5.13;;;15.40;99.90;;;;;;5087560;28;20381;-79
2023/09/28 12:37:22;;;;;;;14.13;4.45;;;15.40;99.90;;;;;;5087613;28;20088;-79
2023/09/28 12:39:53;;;;;;;21.27;5.35;;;15.40;99.90;;;;;;5087703;28;20381;-80
2023/09/28 12:42:24;;;;;;;19.48;5.28;;;15.40;99.90;;;;;;5086972;28;20024;-79
2023/09/28 12:44:50;;;;;;;27.27;5.53;;;15.40;99.90;;;;;;5087662;28;20062;-79
2023/09/28 12:47:19;;;;;;;20.10;6.00;;;15.40;99.90;;;;;;5083553;28;20080;-79
2023/09/28 12:49:45;;;;;;;22.67;5.40;;;15.40;99.90;;;;;;5056025;28;20374;-79
2023/09/28 12:52:11;;;;;;;22.80;5.53;;;15.40;99.90;;;;;;5073182;28;20028;-79
2023/09/28 12:54:37;;;;;;;15.02;5.38;;;15.40;99.90;;;;;;5055924;28;20150;-80
2023/09/28 12:57:04;;;;;;;20.13;6.07;;;15.40;99.90;;;;;;5055481;28;20029;-79